Aérodrome :
LOGIN :

S'inscrire | Disclaimer

   EN    FR    IT 

 










Légende :    VFR   VFR Marginal   IFR   IFR Intensif   IFR Très Intensif
Visi : 
Plafond : 
>= 8 km
>= 3000ft
5 à 8 km
1000 à 3000 ft
1500m à 5 km
500 à 1000 ft
800 à 1500m
200 à 500 ft
< 800m
< 200 ft
Symboles :   Orages  Brouillard  Fortes neiges  Fortes précipitations  Vent > 20 kt
SIGMETs :   Divers  Orages  Givrage  Turbulence  Onde Orograph.  Cendres Volcan.







- Altitude de l'aérodrome : 70 ft
- Code IATA : LEI


LEAM - Almeria

DERNIER METAR :
  • 242300Z AUTO 09004KT 9999 NCD 19/15 Q1011

METARs EXPIRÉS :
  • 242230Z AUTO 08004KT 9999 NCD 20/15 Q1011
  • 242200Z AUTO 08003KT 9999 NCD 20/15 Q1011
  • 242130Z AUTO 09003KT 060V140 9999 NCD 20/15 Q1011
  • 242100Z AUTO VRB01KT 9999 NCD 21/15 Q1011
  • 242030Z 25005KT CAVOK 21/15 Q1011

TAF TAF LEAM
Valide du 24 à 21h jusqu'au 25 à 21h UTC


242000Z 2421/2521 25006KT 9999 FEW030 TX25/2514Z TN17/2506Z
BECMG 2507/2509 24018KT
TEMPO 2510/2519 23020G32KT
Pas de NOTAMs connus pour ce terrain.
1 SIGMET publié pour la FIR Madrid (LECM) :
 
Orages noyés dans la masse
LECM SIGMET 14 VALID 242100/242355 LEVA
LECM MADRID FIR/UIR EMBD TS OBS AT 2036Z WI N3844 W00702 - N3843 W00217 - N4303 W00217 - N4302 W00742 - N4132 W00613 - N3844 W00702 TOP FL380 MOV N 15KT NC=



MET'MAP, la Météo Aéronautique d'un coup d'oeil ! - Copyright ORBIFLY Décembre 2007 - Disclaimer

ORBIFLY MET'MAP TEAM :

Programmation & Développement : Alexandra Zaïnal
Conception & Développement : Baudouin d'Aumeries
Co-Programmation & Développement : Marc-Olivier Méhu
Soutien technique & logistique : Manuel Goepfert

Contact : metmap@orbifly.com




SOURCES & CREDITS :

   NOAA